Time;durP1;ratioP1;P1;durP2;ratioP2;P2;SDS_P1;SDS_P2;PMS_P1;PMS_P2;Temp;Humidity;BMP_temperature;BMP_pressure;BME280_temperature;BME280_humidity;BME280_pressure;Samples;Min_cycle;Max_cycle;Signal;HPM_P1;HPM_P2
2023/03/20 00:01:28;;;;;;;4.60;3.00;;;17.10;64.20;;;;;;5093138;28;20502;-24
2023/03/20 00:03:55;;;;;;;3.65;2.97;;;17.10;64.20;;;;;;5093155;28;20106;-23
2023/03/20 00:06:27;;;;;;;5.72;2.80;;;17.10;64.20;;;;;;5093514;28;20026;-24
2023/03/20 00:08:56;;;;;;;3.75;2.80;;;17.10;64.20;;;;;;5093429;28;20031;-23
2023/03/20 00:11:35;;;;;;;3.70;2.83;;;17.10;64.30;;;;;;5092940;28;20032;-24
2023/03/20 00:14:14;;;;;;;4.00;3.20;;;17.10;64.20;;;;;;5092695;28;20047;-23
2023/03/20 00:16:42;;;;;;;3.90;3.00;;;17.10;64.20;;;;;;5093448;28;20181;-24
2023/03/20 00:19:15;;;;;;;3.22;2.90;;;17.10;64.30;;;;;;5093081;28;20032;-23
2023/03/20 00:21:41;;;;;;;3.90;2.90;;;17.10;64.30;;;;;;5092754;28;20442;-24
2023/03/20 00:24:07;;;;;;;3.20;2.88;;;17.10;64.30;;;;;;5092709;28;20474;-24
2023/03/20 00:26:35;;;;;;;4.15;3.10;;;17.10;64.30;;;;;;5092877;28;20031;-23
2023/03/20 00:29:03;;;;;;;4.18;3.17;;;17.10;64.30;;;;;;5093165;28;20028;-23
2023/03/20 00:31:34;;;;;;;4.78;3.08;;;17.10;64.30;;;;;;5092736;28;20539;-23
2023/03/20 00:34:04;;;;;;;3.47;2.90;;;17.10;64.30;;;;;;5092700;28;20545;-23
2023/03/20 00:36:30;;;;;;;4.18;3.10;;;17.10;64.30;;;;;;5092664;28;20506;-23
2023/03/20 00:38:58;;;;;;;3.67;3.03;;;17.10;64.30;;;;;;5092813;28;20028;-23
2023/03/20 00:41:28;;;;;;;3.58;3.00;;;17.10;64.30;;;;;;5092792;28;20020;-24
2023/03/20 00:44:00;;;;;;;3.65;2.80;;;17.00;64.30;;;;;;5093470;28;20429;-23
2023/03/20 00:46:26;;;;;;;4.00;3.00;;;17.00;64.30;;;;;;5096992;28;20456;-23
2023/03/20 00:48:53;;;;;;;3.78;3.00;;;17.00;64.30;;;;;;5096577;28;20081;-24
2023/03/20 00:51:19;;;;;;;5.55;3.17;;;17.00;64.30;;;;;;5096370;28;20024;-24
2023/03/20 00:53:45;;;;;;;3.00;2.70;;;17.00;64.30;;;;;;5096455;28;20028;-23
2023/03/20 00:56:31;;;;;;;4.60;2.90;;;17.00;64.30;;;;;;5095074;28;20085;-24
2023/03/20 00:58:59;;;;;;;4.18;3.03;;;17.00;64.30;;;;;;5095817;28;20063;-24
2023/03/20 01:01:25;;;;;;;4.03;3.03;;;17.00;64.40;;;;;;5096316;28;20027;-23
2023/03/20 01:03:51;;;;;;;3.85;3.13;;;17.00;64.30;;;;;;5094680;28;20134;-23
2023/03/20 01:06:17;;;;;;;4.78;3.13;;;17.00;64.40;;;;;;5094859;28;20032;-24
2023/03/20 01:08:44;;;;;;;4.15;3.00;;;17.00;64.30;;;;;;5095912;28;20020;-24
2023/03/20 01:11:12;;;;;;;3.70;2.80;;;17.00;64.30;;;;;;5095986;28;20450;-23
2023/03/20 01:13:39;;;;;;;4.35;3.10;;;17.00;64.30;;;;;;5094697;28;20031;-24
2023/03/20 01:16:16;;;;;;;4.57;3.20;;;17.00;64.30;;;;;;5095701;28;20031;-24
2023/03/20 01:18:42;;;;;;;4.95;2.90;;;17.00;64.30;;;;;;5095749;28;20036;-23
2023/03/20 01:21:08;;;;;;;5.10;3.13;;;17.00;64.40;;;;;;5095801;28;20020;-24
2023/03/20 01:23:34;;;;;;;4.40;2.97;;;17.00;64.40;;;;;;5095904;28;20031;-22
2023/03/20 01:25:59;;;;;;;4.45;3.20;;;17.00;64.40;;;;;;5095733;28;20028;-24
2023/03/20 01:28:32;;;;;;;4.00;2.95;;;17.00;64.40;;;;;;5096017;28;20031;-24
2023/03/20 01:30:59;;;;;;;3.80;3.30;;;17.00;64.40;;;;;;5095667;28;20029;-24
2023/03/20 01:33:26;;;;;;;4.82;3.20;;;17.00;64.40;;;;;;5095578;28;20027;-24
2023/03/20 01:35:52;;;;;;;3.88;2.83;;;17.00;64.40;;;;;;5095389;28;20107;-24
2023/03/20 01:38:22;;;;;;;5.13;3.22;;;16.90;64.40;;;;;;5095292;28;20124;-24
2023/03/20 01:41:09;;;;;;;7.47;3.40;;;17.00;64.40;;;;;;5095409;28;20560;-24
2023/03/20 01:43:35;;;;;;;3.75;2.70;;;16.90;64.40;;;;;;5095027;28;20059;-23
2023/03/20 01:46:30;;;;;;;3.92;3.08;;;16.90;64.40;;;;;;5095462;28;20028;-23
2023/03/20 01:49:05;;;;;;;4.05;3.10;;;17.00;64.40;;;;;;5091535;28;20036;-24
2023/03/20 01:51:31;;;;;;;4.05;3.20;;;16.90;64.40;;;;;;5095357;28;20024;-24
2023/03/20 01:54:24;;;;;;;4.15;3.10;;;17.00;64.40;;;;;;5095236;28;20031;-24
2023/03/20 01:56:57;;;;;;;4.07;3.20;;;16.90;64.40;;;;;;5094728;28;20027;-24
2023/03/20 01:59:31;;;;;;;3.58;2.88;;;16.90;64.40;;;;;;5095278;28;20097;-24
2023/03/20 02:01:57;;;;;;;4.55;3.10;;;16.90;64.40;;;;;;5095108;28;20032;-24
2023/03/20 02:04:29;;;;;;;4.75;2.92;;;16.90;64.40;;;;;;5095594;28;20020;-25
2023/03/20 02:06:55;;;;;;;3.72;2.90;;;16.90;64.40;;;;;;5095175;28;20353;-24
2023/03/20 02:09:21;;;;;;;4.45;3.22;;;16.90;64.40;;;;;;5095049;28;20422;-25
2023/03/20 02:11:48;;;;;;;4.80;3.00;;;16.90;64.40;;;;;;5094908;28;20528;-25
2023/03/20 02:14:15;;;;;;;3.88;2.88;;;16.90;64.40;;;;;;5095072;28;20021;-24
2023/03/20 02:16:41;;;;;;;4.03;2.65;;;16.90;64.50;;;;;;5094565;28;20116;-24
2023/03/20 02:19:31;;;;;;;4.18;3.10;;;16.90;64.50;;;;;;5094939;28;20036;-24
2023/03/20 02:22:30;;;;;;;3.80;3.15;;;16.90;64.50;;;;;;5072546;28;20059;-23
2023/03/20 02:25:02;;;;;;;4.38;3.10;;;16.90;64.50;;;;;;5093285;28;20177;-24
2023/03/20 02:27:41;;;;;;;3.65;2.78;;;16.90;64.50;;;;;;5094628;28;20074;-24
2023/03/20 02:30:37;;;;;;;4.10;3.05;;;16.90;64.50;;;;;;5094482;28;20031;-23
2023/03/20 02:33:27;;;;;;;3.30;3.00;;;16.90;64.50;;;;;;5094712;28;20027;-24
2023/03/20 02:36:34;;;;;;;4.07;3.20;;;16.90;64.50;;;;;;5094455;28;20130;-23
2023/03/20 02:39:18;;;;;;;4.13;2.72;;;16.90;64.50;;;;;;5094547;28;20114;-24
2023/03/20 02:41:56;;;;;;;4.30;3.00;;;16.90;64.50;;;;;;5094389;28;20028;-24
2023/03/20 02:44:40;;;;;;;3.45;3.03;;;16.90;64.50;;;;;;5094469;28;20039;-23
2023/03/20 02:47:10;;;;;;;4.20;3.05;;;16.90;64.50;;;;;;5094107;28;20020;-25
2023/03/20 02:49:56;;;;;;;4.18;3.20;;;16.90;64.50;;;;;;5094092;28;20111;-23
2023/03/20 02:52:41;;;;;;;4.53;3.30;;;16.90;64.50;;;;;;5093941;28;20032;-24
2023/03/20 02:55:18;;;;;;;5.07;2.97;;;16.90;64.50;;;;;;5094308;28;20031;-23
2023/03/20 02:57:57;;;;;;;4.80;3.15;;;16.90;64.50;;;;;;5092539;28;20109;-24
2023/03/20 03:00:35;;;;;;;4.43;3.20;;;16.90;64.50;;;;;;5094201;28;20048;-25
2023/03/20 03:03:11;;;;;;;4.20;3.08;;;16.90;64.50;;;;;;5092674;28;20496;-24
2023/03/20 03:05:55;;;;;;;4.47;3.10;;;16.90;64.50;;;;;;5093784;28;20532;-25
2023/03/20 03:08:24;;;;;;;4.70;3.15;;;16.90;64.50;;;;;;5093915;28;20043;-24
2023/03/20 03:11:06;;;;;;;3.22;2.90;;;16.90;64.50;;;;;;5093672;28;20024;-24
2023/03/20 03:13:39;;;;;;;4.03;2.90;;;16.90;64.50;;;;;;5093484;28;20486;-24
2023/03/20 03:16:19;;;;;;;4.05;3.17;;;16.80;64.50;;;;;;5093437;28;20032;-24
2023/03/20 03:18:48;;;;;;;3.72;2.97;;;16.90;64.50;;;;;;5093761;28;20372;-24
2023/03/20 03:21:16;;;;;;;4.32;2.80;;;16.90;64.50;;;;;;5093528;28;20107;-24
2023/03/20 03:23:47;;;;;;;3.03;2.55;;;16.90;64.60;;;;;;5093301;28;20491;-27
2023/03/20 03:26:24;;;;;;;3.78;2.97;;;16.90;64.60;;;;;;5093493;28;20100;-24
2023/03/20 03:29:00;;;;;;;4.80;3.33;;;16.90;64.60;;;;;;5093815;28;20059;-24
2023/03/20 03:31:28;;;;;;;3.97;2.92;;;16.90;64.60;;;;;;5093422;28;20020;-24
2023/03/20 03:33:56;;;;;;;4.10;3.20;;;16.80;64.60;;;;;;5093106;28;20031;-24
2023/03/20 03:37:00;;;;;;;3.67;3.10;;;16.80;64.60;;;;;;5093290;28;20040;-25
2023/03/20 03:39:50;;;;;;;4.20;3.25;;;16.80;64.60;;;;;;5073369;28;20514;-23
2023/03/20 03:42:28;;;;;;;3.55;2.85;;;16.80;64.60;;;;;;5093656;28;20503;-23
2023/03/20 03:45:16;;;;;;;3.25;2.95;;;16.80;64.60;;;;;;5093293;28;20032;-24
2023/03/20 03:47:42;;;;;;;3.40;2.90;;;16.80;64.60;;;;;;5093217;28;20107;-23
2023/03/20 03:50:17;;;;;;;3.25;2.88;;;16.80;64.60;;;;;;5093576;28;20111;-23
2023/03/20 03:52:44;;;;;;;3.75;3.10;;;16.80;64.60;;;;;;5093067;28;20078;-24
2023/03/20 03:55:15;;;;;;;4.03;2.78;;;16.80;64.60;;;;;;5093107;28;20032;-24
2023/03/20 03:57:48;;;;;;;3.47;3.00;;;16.80;64.60;;;;;;5093191;28;20542;-24
2023/03/20 04:00:18;;;;;;;3.37;2.80;;;16.80;64.60;;;;;;5093040;28;20112;-25
2023/03/20 04:02:48;;;;;;;3.08;2.78;;;16.80;64.60;;;;;;5093120;28;20251;-24
2023/03/20 04:05:16;;;;;;;4.15;2.90;;;16.80;64.60;;;;;;5093252;28;20028;-24
2023/03/20 04:07:45;;;;;;;3.45;3.15;;;16.80;64.60;;;;;;5093179;28;20039;-24
2023/03/20 04:10:12;;;;;;;3.70;2.90;;;16.80;64.60;;;;;;5093432;28;20028;-24
2023/03/20 04:12:41;;;;;;;4.32;3.20;;;16.80;64.60;;;;;;5093202;28;20105;-24
2023/03/20 04:15:07;;;;;;;3.47;3.03;;;16.80;64.60;;;;;;5092954;28;20073;-24
2023/03/20 04:17:34;;;;;;;3.30;2.90;;;16.80;64.60;;;;;;5092709;28;20059;-24
2023/03/20 04:20:00;;;;;;;4.25;3.55;;;16.80;64.60;;;;;;5095791;28;20150;-24
2023/03/20 04:22:26;;;;;;;4.45;3.30;;;16.80;64.60;;;;;;5095601;28;20115;-24
2023/03/20 04:24:52;;;;;;;4.10;2.97;;;16.80;64.60;;;;;;5096899;28;20403;-23
2023/03/20 04:27:19;;;;;;;4.63;3.10;;;16.80;64.60;;;;;;5095628;28;20036;-24
2023/03/20 04:29:46;;;;;;;4.85;3.25;;;16.80;64.60;;;;;;5096531;28;20162;-24
2023/03/20 04:32:12;;;;;;;4.03;3.10;;;16.80;64.70;;;;;;5097042;28;20475;-25
2023/03/20 04:34:38;;;;;;;3.95;3.30;;;16.80;64.70;;;;;;5097080;28;20491;-24
2023/03/20 04:37:07;;;;;;;3.30;3.00;;;16.80;64.70;;;;;;5096893;28;20096;-24
2023/03/20 04:39:34;;;;;;;3.40;2.92;;;16.80;64.70;;;;;;5096556;28;20031;-24
2023/03/20 04:42:00;;;;;;;3.65;2.90;;;16.70;64.70;;;;;;5096344;28;20085;-24
2023/03/20 04:44:26;;;;;;;4.45;3.40;;;16.80;64.70;;;;;;5096590;28;20028;-24
2023/03/20 04:46:52;;;;;;;3.38;2.72;;;16.80;64.70;;;;;;5096822;28;20028;-24
2023/03/20 04:49:18;;;;;;;3.72;2.97;;;16.80;64.70;;;;;;5096671;28;20024;-23
2023/03/20 04:51:44;;;;;;;4.22;2.97;;;16.70;64.70;;;;;;5096105;28;20034;-24
2023/03/20 04:54:10;;;;;;;4.50;2.90;;;16.70;64.70;;;;;;5096676;28;20107;-24
2023/03/20 04:56:35;;;;;;;4.07;3.30;;;16.70;64.70;;;;;;5096242;28;20494;-24
2023/03/20 04:59:02;;;;;;;5.13;3.10;;;16.70;64.70;;;;;;5096822;28;20028;-24
2023/03/20 05:01:27;;;;;;;3.72;3.00;;;16.70;64.70;;;;;;5096198;28;20028;-24
2023/03/20 05:03:59;;;;;;;3.85;3.00;;;16.80;64.70;;;;;;5096180;28;20110;-24
2023/03/20 05:06:26;;;;;;;3.78;3.05;;;16.70;64.70;;;;;;5096257;28;20505;-24
2023/03/20 05:08:52;;;;;;;4.93;2.97;;;16.70;64.70;;;;;;5096293;28;20020;-24
2023/03/20 05:11:18;;;;;;;4.35;3.03;;;16.70;64.70;;;;;;5096306;28;20106;-23
2023/03/20 05:13:44;;;;;;;4.53;3.10;;;16.70;64.70;;;;;;5095715;28;20490;-24
2023/03/20 05:16:10;;;;;;;4.45;3.40;;;16.70;64.70;;;;;;5096037;28;20024;-23
2023/03/20 05:18:36;;;;;;;4.85;3.08;;;16.70;64.70;;;;;;5095804;28;20404;-24
2023/03/20 05:21:03;;;;;;;4.53;3.10;;;16.70;64.70;;;;;;5096126;28;20086;-24
2023/03/20 05:23:29;;;;;;;4.43;3.08;;;16.70;64.70;;;;;;5095935;28;20055;-24
2023/03/20 05:25:55;;;;;;;4.28;3.20;;;16.70;64.70;;;;;;5095828;28;20031;-24
2023/03/20 05:28:21;;;;;;;4.90;3.20;;;16.70;64.70;;;;;;5095621;28;20024;-23
2023/03/20 05:30:47;;;;;;;4.10;3.30;;;16.70;64.70;;;;;;5094257;28;20084;-24
2023/03/20 05:33:13;;;;;;;4.20;3.05;;;16.70;64.70;;;;;;5095661;28;20032;-24
2023/03/20 05:35:39;;;;;;;4.00;3.15;;;16.70;64.80;;;;;;5095863;28;20017;-23
2023/03/20 05:38:05;;;;;;;3.70;3.10;;;16.60;64.70;;;;;;5095418;28;20517;-24
2023/03/20 05:40:31;;;;;;;4.07;3.17;;;16.70;64.80;;;;;;5096264;28;20024;-24
2023/03/20 05:42:57;;;;;;;3.95;2.85;;;16.70;64.70;;;;;;5095614;28;20028;-25
2023/03/20 05:45:24;;;;;;;4.70;3.13;;;16.70;64.80;;;;;;5095305;28;20028;-23
2023/03/20 05:47:50;;;;;;;3.58;2.97;;;16.70;64.80;;;;;;5095409;28;20032;-24
2023/03/20 05:50:16;;;;;;;4.20;3.20;;;16.70;64.80;;;;;;5095279;28;20016;-24
2023/03/20 05:52:42;;;;;;;5.50;3.03;;;16.70;64.80;;;;;;5095114;28;20039;-24
2023/03/20 05:55:08;;;;;;;3.83;3.15;;;16.60;64.80;;;;;;5095516;28;20024;-24
2023/03/20 05:57:34;;;;;;;5.30;3.13;;;16.60;64.80;;;;;;5094985;28;20020;-24
2023/03/20 06:00:00;;;;;;;5.63;3.55;;;16.60;64.80;;;;;;5094846;28;20048;-24
2023/03/20 06:02:25;;;;;;;5.05;3.20;;;16.60;64.80;;;;;;5095038;28;20116;-24
2023/03/20 06:04:51;;;;;;;3.90;3.28;;;16.70;64.70;;;;;;5095377;28;20070;-24
2023/03/20 06:07:17;;;;;;;4.15;3.08;;;16.60;64.70;;;;;;5094875;28;20024;-24
2023/03/20 06:09:43;;;;;;;3.85;3.10;;;16.70;64.80;;;;;;5094803;28;20020;-24
2023/03/20 06:12:10;;;;;;;4.68;3.17;;;16.70;64.80;;;;;;5094876;28;20020;-24
2023/03/20 06:14:36;;;;;;;5.78;3.38;;;16.70;64.90;;;;;;5094812;28;20043;-24
2023/03/20 06:17:02;;;;;;;4.50;3.38;;;16.70;65.00;;;;;;5094588;28;20055;-24
2023/03/20 06:19:27;;;;;;;5.22;3.20;;;16.60;65.10;;;;;;5094947;28;20040;-24
2023/03/20 06:21:54;;;;;;;5.35;3.53;;;16.70;65.20;;;;;;5094455;28;20536;-24
2023/03/20 06:27:42;;;;;;;5.18;3.55;;;16.70;65.50;;;;;;5094679;28;20391;-24
2023/03/20 06:30:08;;;;;;;5.90;3.40;;;16.70;65.60;;;;;;5094530;28;20012;-23
2023/03/20 06:32:35;;;;;;;4.50;3.40;;;16.70;65.50;;;;;;5094796;28;20027;-24
2023/03/20 06:35:00;;;;;;;4.38;3.20;;;16.70;65.60;;;;;;5094420;28;20564;-24
2023/03/20 06:37:27;;;;;;;5.70;3.30;;;16.70;65.60;;;;;;5093440;28;20066;-24
2023/03/20 06:39:53;;;;;;;5.60;3.30;;;16.70;65.60;;;;;;5094413;28;20036;-24
2023/03/20 06:42:19;;;;;;;4.60;3.15;;;16.80;65.60;;;;;;5093100;28;20103;-25
2023/03/20 06:44:45;;;;;;;4.53;3.22;;;16.80;65.50;;;;;;5094590;28;20106;-25
2023/03/20 06:47:10;;;;;;;5.15;3.35;;;16.80;65.50;;;;;;5094571;28;20475;-24
2023/03/20 06:49:36;;;;;;;6.13;3.10;;;16.80;65.50;;;;;;5094478;28;20028;-24
2023/03/20 06:52:03;;;;;;;6.72;3.40;;;16.80;65.50;;;;;;5094210;28;20387;-24
2023/03/20 06:54:29;;;;;;;4.40;3.10;;;16.80;65.50;;;;;;5094128;28;20092;-25
2023/03/20 06:56:54;;;;;;;7.35;3.47;;;16.80;65.50;;;;;;5094679;28;20020;-24
2023/03/20 06:59:20;;;;;;;4.68;3.58;;;16.90;65.50;;;;;;5092702;28;20495;-24
2023/03/20 07:01:46;;;;;;;5.88;3.67;;;16.80;65.50;;;;;;5094000;28;20028;-24
2023/03/20 07:04:13;;;;;;;6.40;3.70;;;16.90;65.60;;;;;;5094074;28;20067;-24
2023/03/20 07:06:39;;;;;;;5.45;3.50;;;16.80;65.60;;;;;;5094151;28;20032;-25
2023/03/20 07:09:06;;;;;;;5.70;3.60;;;16.80;65.60;;;;;;5093750;28;20027;-24
2023/03/20 07:11:33;;;;;;;4.80;3.35;;;16.90;65.60;;;;;;5093724;28;20060;-24
2023/03/20 07:14:00;;;;;;;5.07;3.30;;;16.90;65.60;;;;;;5093483;28;20028;-24
2023/03/20 07:16:26;;;;;;;4.57;3.30;;;16.80;65.60;;;;;;5093033;28;20052;-23
2023/03/20 07:18:52;;;;;;;5.00;3.50;;;16.90;65.70;;;;;;5094014;28;20079;-24
2023/03/20 07:21:21;;;;;;;3.90;3.13;;;16.90;65.70;;;;;;5093522;28;20047;-24
2023/03/20 07:23:48;;;;;;;5.30;3.53;;;16.90;65.70;;;;;;5092060;28;20028;-25
2023/03/20 07:26:14;;;;;;;6.35;3.33;;;16.90;65.70;;;;;;5093537;28;20085;-24
2023/03/20 07:28:40;;;;;;;5.57;3.28;;;16.90;65.70;;;;;;5093842;28;20024;-24
2023/03/20 07:31:06;;;;;;;5.60;3.47;;;16.90;65.70;;;;;;5093646;28;20066;-24
2023/03/20 07:33:32;;;;;;;4.93;3.55;;;16.90;65.60;;;;;;5092369;28;20063;-24
2023/03/20 07:35:58;;;;;;;4.65;3.30;;;16.90;65.60;;;;;;5093560;28;20024;-24
2023/03/20 07:38:24;;;;;;;5.75;3.30;;;17.00;65.50;;;;;;5093507;28;20501;-24
2023/03/20 07:40:53;;;;;;;6.93;3.50;;;17.10;65.30;;;;;;5093359;28;20077;-24
2023/03/20 07:43:21;;;;;;;5.75;3.42;;;17.10;65.20;;;;;;5093562;28;20437;-24
2023/03/20 07:45:47;;;;;;;7.97;3.55;;;17.20;65.10;;;;;;5093293;28;20043;-24
2023/03/20 07:48:13;;;;;;;4.97;3.20;;;17.30;65.00;;;;;;5093882;28;20032;-25
2023/03/20 07:50:39;;;;;;;4.35;3.50;;;17.30;64.90;;;;;;5093371;28;20031;-24
2023/03/20 07:53:05;;;;;;;6.13;3.60;;;17.40;64.80;;;;;;5092507;28;20020;-24
2023/03/20 07:55:32;;;;;;;4.25;3.20;;;17.30;64.80;;;;;;5093265;28;20036;-24
2023/03/20 07:57:58;;;;;;;5.10;3.40;;;17.40;64.80;;;;;;5092858;28;20032;-24
2023/03/20 08:00:24;;;;;;;3.40;2.80;;;17.40;64.80;;;;;;5093040;28;20107;-24
2023/03/20 08:02:50;;;;;;;5.72;3.58;;;17.40;64.80;;;;;;5093444;28;20114;-25
2023/03/20 08:05:16;;;;;;;4.60;3.25;;;17.40;64.80;;;;;;5093390;28;20046;-24
2023/03/20 08:07:42;;;;;;;5.07;3.30;;;17.40;64.80;;;;;;5091549;28;20034;-26
2023/03/20 08:10:09;;;;;;;4.72;3.47;;;17.40;64.80;;;;;;5093054;28;20024;-25
2023/03/20 08:12:35;;;;;;;5.55;3.13;;;17.40;64.80;;;;;;5093359;28;20028;-24
2023/03/20 08:15:01;;;;;;;4.85;3.42;;;17.40;64.80;;;;;;5091738;28;20055;-24
2023/03/20 08:17:27;;;;;;;5.25;3.38;;;17.40;64.80;;;;;;5092628;28;20113;-24
2023/03/20 08:19:54;;;;;;;5.40;3.25;;;17.40;64.70;;;;;;5091418;28;20040;-24
2023/03/20 08:22:20;;;;;;;6.00;3.13;;;17.40;64.70;;;;;;5092829;28;20028;-24
2023/03/20 08:24:46;;;;;;;4.68;3.55;;;17.50;64.60;;;;;;5092719;28;20487;-24
2023/03/20 08:27:12;;;;;;;5.05;3.38;;;17.50;64.60;;;;;;5091544;28;20038;-24
2023/03/20 08:29:38;;;;;;;4.18;3.25;;;17.60;64.50;;;;;;5091776;28;20085;-24
2023/03/20 08:32:05;;;;;;;6.60;3.67;;;17.60;64.50;;;;;;5092917;28;20038;-24
2023/03/20 08:34:32;;;;;;;6.20;3.50;;;17.60;64.40;;;;;;5092795;28;20483;-24
2023/03/20 08:36:58;;;;;;;4.97;3.00;;;17.60;64.40;;;;;;5093124;28;20028;-24
2023/03/20 08:39:24;;;;;;;6.88;3.50;;;17.70;64.30;;;;;;5092744;28;20109;-24
2023/03/20 08:41:50;;;;;;;5.10;3.10;;;17.70;64.20;;;;;;5092890;28;20436;-24
2023/03/20 08:44:16;;;;;;;6.65;3.97;;;17.80;64.10;;;;;;5092766;28;20020;-24
2023/03/20 08:46:43;;;;;;;5.63;4.15;;;17.80;64.10;;;;;;5092622;28;20024;-24
2023/03/20 08:49:09;;;;;;;12.05;4.65;;;17.90;63.90;;;;;;5092964;28;20016;-24
2023/03/20 08:51:35;;;;;;;5.35;3.75;;;17.90;63.80;;;;;;5092941;28;20039;-24
2023/03/20 08:54:01;;;;;;;4.13;3.42;;;17.90;63.70;;;;;;5092406;28;20020;-24
2023/03/20 08:56:27;;;;;;;5.68;3.53;;;17.90;63.70;;;;;;5092561;28;20059;-24
2023/03/20 08:58:54;;;;;;;5.78;3.58;;;17.90;63.60;;;;;;5092437;28;20028;-24
2023/03/20 09:01:21;;;;;;;4.53;3.22;;;18.00;63.60;;;;;;5092598;28;20036;-24
2023/03/20 09:03:47;;;;;;;4.80;3.38;;;18.00;63.50;;;;;;5091173;28;20036;-24
2023/03/20 09:06:13;;;;;;;4.22;3.40;;;18.00;63.50;;;;;;5095760;28;20116;-24
2023/03/20 09:08:39;;;;;;;4.55;3.38;;;18.00;63.40;;;;;;5096145;28;20361;-24
2023/03/20 09:11:06;;;;;;;4.75;3.60;;;18.10;63.40;;;;;;5096083;28;20032;-24
2023/03/20 09:13:32;;;;;;;6.85;4.20;;;18.10;63.30;;;;;;5096062;28;20048;-24
2023/03/20 09:15:58;;;;;;;7.95;4.78;;;18.10;63.20;;;;;;5096004;28;20024;-24
2023/03/20 09:18:24;;;;;;;6.18;4.20;;;18.20;63.10;;;;;;5095519;28;20058;-24
2023/03/20 09:20:51;;;;;;;5.25;3.65;;;18.20;63.00;;;;;;5095982;28;20031;-24
2023/03/20 09:23:17;;;;;;;6.18;4.43;;;18.20;62.90;;;;;;5095992;28;20024;-24
2023/03/20 09:25:43;;;;;;;7.60;4.70;;;18.20;62.90;;;;;;5095872;28;20032;-25
2023/03/20 09:28:10;;;;;;;5.70;4.45;;;18.30;62.90;;;;;;5095915;28;20032;-24
2023/03/20 09:30:37;;;;;;;7.47;5.35;;;18.30;62.70;;;;;;5095722;28;20028;-24
2023/03/20 09:33:03;;;;;;;8.65;5.53;;;18.30;62.60;;;;;;5095485;28;20040;-24
2023/03/20 09:35:29;;;;;;;7.32;5.15;;;18.30;62.40;;;;;;5095592;28;20484;-24
2023/03/20 09:37:55;;;;;;;8.18;5.05;;;18.30;62.40;;;;;;5094013;28;20027;-24
2023/03/20 09:40:29;;;;;;;7.53;5.28;;;18.40;62.40;;;;;;5095442;28;20498;-25
2023/03/20 09:43:16;;;;;;;7.15;5.00;;;18.40;62.40;;;;;;5095807;28;20079;-24
2023/03/20 09:46:03;;;;;;;8.38;5.28;;;18.40;62.30;;;;;;5095310;28;20502;-23
2023/03/20 09:48:47;;;;;;;6.32;4.35;;;18.40;62.20;;;;;;5095245;28;20491;-23
2023/03/20 09:51:16;;;;;;;6.78;4.50;;;18.40;62.30;;;;;;5095427;28;20480;-23
2023/03/20 09:53:48;;;;;;;7.63;5.15;;;18.40;62.30;;;;;;5095185;28;20562;-24
2023/03/20 09:56:20;;;;;;;8.63;5.78;;;18.40;62.10;;;;;;5095281;28;20028;-24
2023/03/20 09:58:58;;;;;;;8.48;6.00;;;18.40;62.10;;;;;;5095103;28;20043;-24
2023/03/20 10:01:59;;;;;;;6.95;4.82;;;18.40;62.00;;;;;;5095383;28;20046;-24
2023/03/20 10:04:28;;;;;;;7.55;4.68;;;18.40;62.00;;;;;;5052789;28;20365;-23
2023/03/20 10:06:55;;;;;;;8.60;5.53;;;18.40;62.20;;;;;;5053043;28;20102;-23
2023/03/20 10:09:32;;;;;;;9.88;5.07;;;18.50;62.10;;;;;;5052591;28;20040;-23
2023/03/20 10:12:19;;;;;;;6.80;4.88;;;18.50;62.00;;;;;;5052470;28;20029;-24
2023/03/20 10:14:48;;;;;;;8.57;5.07;;;18.50;62.00;;;;;;5052672;28;20033;-23
2023/03/20 10:17:28;;;;;;;8.38;5.32;;;18.50;61.90;;;;;;5051590;28;20071;-24
2023/03/20 10:20:18;;;;;;;7.20;4.72;;;18.50;61.80;;;;;;5052363;28;20079;-25
2023/03/20 10:22:52;;;;;;;7.88;5.18;;;18.60;61.80;;;;;;5051899;28;20037;-24
2023/03/20 10:25:28;;;;;;;7.75;5.05;;;18.60;61.80;;;;;;5035754;28;20095;-24
2023/03/20 10:28:05;;;;;;;8.05;5.22;;;18.60;61.90;;;;;;5052069;28;20048;-24
2023/03/20 10:30:40;;;;;;;7.55;4.97;;;18.60;61.80;;;;;;5052332;28;20033;-24
2023/03/20 10:33:23;;;;;;;7.07;4.63;;;18.60;61.70;;;;;;5035577;28;20021;-24
2023/03/20 10:35:50;;;;;;;;;;;18.50;61.70;;;;;;5052431;28;20060;-24
2023/03/20 10:38:29;;;;;;;7.80;4.68;;;18.50;61.70;;;;;;5052010;28;19905;-24
2023/03/20 10:40:57;;;;;;;6.03;3.95;;;18.50;61.80;;;;;;5089347;28;20043;-24
2023/03/20 10:43:34;;;;;;;5.80;3.72;;;18.50;61.90;;;;;;5094607;28;20491;-24
2023/03/20 10:46:13;;;;;;;6.53;3.85;;;18.50;62.00;;;;;;5094043;28;20077;-24
2023/03/20 10:48:49;;;;;;;5.47;3.50;;;18.50;62.10;;;;;;5094575;28;20047;-24
2023/03/20 10:51:21;;;;;;;6.10;4.65;;;18.50;62.10;;;;;;5094528;28;20128;-24
2023/03/20 10:54:03;;;;;;;6.47;4.50;;;18.40;62.20;;;;;;5094084;28;20361;-24
2023/03/20 10:56:38;;;;;;;8.27;4.43;;;18.40;62.10;;;;;;5094102;28;20035;-24
2023/03/20 10:59:26;;;;;;;6.32;3.80;;;18.40;62.10;;;;;;5093936;28;20060;-24
2023/03/20 11:01:52;;;;;;;6.82;4.10;;;18.40;62.10;;;;;;5094232;28;20032;-24
2023/03/20 11:04:18;;;;;;;5.63;4.28;;;18.40;62.10;;;;;;5094189;28;20031;-23
2023/03/20 11:07:02;;;;;;;5.72;3.90;;;18.40;62.10;;;;;;5094207;28;20062;-24
2023/03/20 11:09:30;;;;;;;4.97;3.58;;;18.40;62.10;;;;;;5093837;28;20081;-24
2023/03/20 11:11:59;;;;;;;5.97;4.30;;;18.40;62.20;;;;;;5093622;28;20034;-24
2023/03/20 11:14:38;;;;;;;6.45;3.75;;;18.40;62.20;;;;;;5093708;28;20035;-24
2023/03/20 11:17:05;;;;;;;6.28;3.95;;;18.40;62.20;;;;;;5093593;28;20415;-24
2023/03/20 11:19:39;;;;;;;6.78;4.40;;;18.40;62.10;;;;;;5093930;28;20046;-24
2023/03/20 11:22:30;;;;;;;6.10;3.90;;;18.40;62.10;;;;;;5093470;28;20028;-24
2023/03/20 11:25:02;;;;;;;5.53;3.95;;;18.40;62.00;;;;;;5093207;28;20036;-24
2023/03/20 11:27:30;;;;;;;5.75;4.15;;;18.40;62.10;;;;;;5093418;28;20020;-24
2023/03/20 11:29:59;;;;;;;5.95;3.97;;;18.40;62.10;;;;;;5093501;28;20579;-24
2023/03/20 11:32:34;;;;;;;6.75;4.18;;;18.40;62.00;;;;;;5093266;28;20035;-26
2023/03/20 11:35:30;;;;;;;6.97;4.03;;;18.40;62.00;;;;;;5093326;28;20046;-24
2023/03/20 11:38:15;;;;;;;7.53;4.15;;;18.30;62.00;;;;;;5050642;28;20051;-24
2023/03/20 11:40:41;;;;;;;5.88;3.70;;;18.40;62.10;;;;;;5051033;28;20090;-24
2023/03/20 11:43:20;;;;;;;7.82;4.05;;;18.40;62.10;;;;;;5051004;28;20037;-24
2023/03/20 11:45:58;;;;;;;6.95;3.65;;;18.40;62.10;;;;;;5050814;28;20536;-24
2023/03/20 11:48:35;;;;;;;6.45;3.55;;;18.40;62.20;;;;;;5050973;28;20048;-24
2023/03/20 11:51:17;;;;;;;4.20;3.53;;;18.40;62.20;;;;;;5051217;28;20017;-24
2023/03/20 11:53:46;;;;;;;4.32;3.42;;;18.40;62.20;;;;;;5050688;28;20064;-23
2023/03/20 11:56:13;;;;;;;5.47;3.50;;;18.30;62.20;;;;;;5034225;28;20503;-24
2023/03/20 11:59:05;;;;;;;5.35;3.50;;;18.30;62.30;;;;;;5051159;28;20028;-23
2023/03/20 12:01:45;;;;;;;5.25;3.55;;;18.40;62.40;;;;;;5040332;28;20033;-24
2023/03/20 12:04:36;;;;;;;7.38;3.75;;;18.40;62.40;;;;;;5050890;28;20047;-25
2023/03/20 12:07:32;;;;;;;4.95;3.40;;;18.30;62.20;;;;;;5051204;28;20037;-24
2023/03/20 12:10:09;;;;;;;4.93;3.10;;;18.40;62.00;;;;;;5050638;28;20477;-24
2023/03/20 12:12:40;;;;;;;4.85;3.20;;;18.40;62.00;;;;;;5050780;28;20025;-23
2023/03/20 12:15:06;;;;;;;5.60;3.80;;;18.40;62.10;;;;;;5085939;28;20032;-24
2023/03/20 12:17:53;;;;;;;5.40;3.42;;;18.40;62.00;;;;;;5092657;28;20571;-24
2023/03/20 12:20:27;;;;;;;5.38;3.20;;;18.40;62.00;;;;;;5092898;28;20036;-24
2023/03/20 12:23:12;;;;;;;4.65;3.50;;;18.40;62.00;;;;;;5093360;28;20028;-24
2023/03/20 12:26:06;;;;;;;3.97;3.10;;;18.40;62.00;;;;;;5092941;28;20514;-24
2023/03/20 12:29:00;;;;;;;5.72;3.60;;;18.40;62.00;;;;;;5093271;28;20028;-24
2023/03/20 12:31:32;;;;;;;5.05;3.50;;;18.40;61.90;;;;;;5092931;28;20111;-23
2023/03/20 12:34:20;;;;;;;5.22;3.50;;;18.30;61.90;;;;;;5093001;28;20067;-23
2023/03/20 12:36:49;;;;;;;6.57;3.60;;;18.40;61.80;;;;;;5093145;28;20036;-24
2023/03/20 12:39:22;;;;;;;5.25;3.65;;;18.30;61.70;;;;;;5092617;28;20028;-25
2023/03/20 12:42:09;;;;;;;4.95;3.72;;;18.30;61.60;;;;;;5096471;28;20028;-24
2023/03/20 12:44:59;;;;;;;7.53;4.40;;;18.30;61.60;;;;;;5096902;28;20046;-24
2023/03/20 12:47:47;;;;;;;6.68;3.92;;;18.30;61.40;;;;;;5096558;28;20063;-23
2023/03/20 12:50:36;;;;;;;5.00;3.22;;;18.30;61.60;;;;;;5096642;28;20031;-25
2023/03/20 12:53:29;;;;;;;4.60;3.22;;;18.30;61.80;;;;;;5096303;28;20440;-24
2023/03/20 12:56:21;;;;;;;7.38;4.20;;;18.30;62.10;;;;;;5096500;28;20035;-24
2023/03/20 12:59:02;;;;;;;5.28;3.42;;;18.30;62.10;;;;;;5096542;28;20034;-23
2023/03/20 13:01:44;;;;;;;5.95;3.60;;;18.30;62.20;;;;;;5096516;28;20543;-25
2023/03/20 13:04:16;;;;;;;4.40;3.35;;;18.30;62.30;;;;;;5096543;28;20078;-23
2023/03/20 13:06:58;;;;;;;5.78;3.95;;;18.30;62.20;;;;;;5096149;28;20060;-24
2023/03/20 13:10:10;;;;;;;6.38;3.55;;;18.30;62.00;;;;;;5095960;28;20024;-24
2023/03/20 13:12:52;;;;;;;4.90;3.28;;;18.30;62.10;;;;;;5053445;28;20455;-23
2023/03/20 13:15:48;;;;;;;6.70;4.13;;;18.30;62.30;;;;;;5053614;28;20513;-24